sensor_id;sensor_type;location;lat;lon;timestamp;P1;durP1;ratioP1;P2;durP2;ratioP2
18316;SDS011;9284;52.298;21.164;2023-02-28T04:11:53;22.37;;;9.50;;
18316;SDS011;9284;52.298;21.164;2023-02-28T04:14:22;19.80;;;8.77;;
18316;SDS011;9284;52.298;21.164;2023-02-28T04:16:50;21.77;;;8.27;;
18316;SDS011;9284;52.298;21.164;2023-02-28T04:19:19;21.47;;;8.43;;
18316;SDS011;9284;52.298;21.164;2023-02-28T04:21:48;18.13;;;8.23;;
18316;SDS011;9284;52.298;21.164;2023-02-28T04:24:20;19.10;;;8.30;;
18316;SDS011;9284;52.298;21.164;2023-02-28T04:26:53;25.50;;;8.90;;
18316;SDS011;9284;52.298;21.164;2023-02-28T04:29:25;21.67;;;8.50;;
18316;SDS011;9284;52.298;21.164;2023-02-28T04:31:55;22.10;;;8.37;;
18316;SDS011;9284;52.298;21.164;2023-02-28T04:34:25;23.30;;;8.73;;
18316;SDS011;9284;52.298;21.164;2023-02-28T04:36:55;21.13;;;8.60;;
18316;SDS011;9284;52.298;21.164;2023-02-28T04:39:40;20.73;;;8.67;;
18316;SDS011;9284;52.298;21.164;2023-02-28T04:42:10;21.07;;;8.53;;
18316;SDS011;9284;52.298;21.164;2023-02-28T04:44:39;28.57;;;9.70;;
18316;SDS011;9284;52.298;21.164;2023-02-28T04:47:07;19.77;;;8.73;;
18316;SDS011;9284;52.298;21.164;2023-02-28T04:49:36;24.87;;;9.57;;
18316;SDS011;9284;52.298;21.164;2023-02-28T04:52:04;18.17;;;8.30;;
18316;SDS011;9284;52.298;21.164;2023-02-28T04:54:34;18.60;;;8.00;;
18316;SDS011;9284;52.298;21.164;2023-02-28T04:57:02;23.60;;;9.77;;
18316;SDS011;9284;52.298;21.164;2023-02-28T04:59:32;26.60;;;9.77;;
18316;SDS011;9284;52.298;21.164;2023-02-28T05:02:00;22.73;;;8.53;;
18316;SDS011;9284;52.298;21.164;2023-02-28T05:04:33;24.17;;;8.93;;
18316;SDS011;9284;52.298;21.164;2023-02-28T05:07:02;23.83;;;9.47;;
18316;SDS011;9284;52.298;21.164;2023-02-28T05:09:30;22.80;;;9.53;;
18316;SDS011;9284;52.298;21.164;2023-02-28T05:12:00;22.53;;;9.70;;
18316;SDS011;9284;52.298;21.164;2023-02-28T05:14:28;22.93;;;9.23;;
18316;SDS011;9284;52.298;21.164;2023-02-28T05:16:58;25.43;;;9.83;;
18316;SDS011;9284;52.298;21.164;2023-02-28T05:19:26;22.47;;;9.20;;
18316;SDS011;9284;52.298;21.164;2023-02-28T05:21:55;23.37;;;9.63;;
18316;SDS011;9284;52.298;21.164;2023-02-28T05:24:23;25.47;;;9.97;;
18316;SDS011;9284;52.298;21.164;2023-02-28T05:26:53;22.87;;;9.53;;
18316;SDS011;9284;52.298;21.164;2023-02-28T05:29:21;25.80;;;9.83;;
18316;SDS011;9284;52.298;21.164;2023-02-28T05:31:50;28.13;;;10.27;;
18316;SDS011;9284;52.298;21.164;2023-02-28T05:34:20;24.03;;;9.57;;
18316;SDS011;9284;52.298;21.164;2023-02-28T05:36:48;27.40;;;10.03;;
18316;SDS011;9284;52.298;21.164;2023-02-28T05:39:16;26.63;;;10.40;;
18316;SDS011;9284;52.298;21.164;2023-02-28T05:41:45;23.97;;;9.77;;
18316;SDS011;9284;52.298;21.164;2023-02-28T05:44:13;25.37;;;10.13;;
18316;SDS011;9284;52.298;21.164;2023-02-28T05:46:42;29.00;;;10.00;;
18316;SDS011;9284;52.298;21.164;2023-02-28T05:49:11;21.57;;;9.60;;
18316;SDS011;9284;52.298;21.164;2023-02-28T05:51:41;22.27;;;9.37;;
18316;SDS011;9284;52.298;21.164;2023-02-28T05:54:09;23.20;;;8.70;;
18316;SDS011;9284;52.298;21.164;2023-02-28T05:56:39;30.73;;;10.07;;
18316;SDS011;9284;52.298;21.164;2023-02-28T05:59:10;24.80;;;9.73;;
18316;SDS011;9284;52.298;21.164;2023-02-28T06:01:39;23.73;;;10.20;;
18316;SDS011;9284;52.298;21.164;2023-02-28T06:04:15;28.03;;;10.70;;
18316;SDS011;9284;52.298;21.164;2023-02-28T06:06:58;22.67;;;9.07;;
18316;SDS011;9284;52.298;21.164;2023-02-28T06:09:28;25.77;;;9.70;;
18316;SDS011;9284;52.298;21.164;2023-02-28T06:11:57;22.83;;;9.97;;
18316;SDS011;9284;52.298;21.164;2023-02-28T06:14:25;26.73;;;10.67;;
18316;SDS011;9284;52.298;21.164;2023-02-28T06:16:54;31.47;;;10.43;;
18316;SDS011;9284;52.298;21.164;2023-02-28T06:19:24;24.43;;;9.70;;
18316;SDS011;9284;52.298;21.164;2023-02-28T06:21:53;27.80;;;9.67;;
18316;SDS011;9284;52.298;21.164;2023-02-28T06:24:25;25.40;;;9.83;;
18316;SDS011;9284;52.298;21.164;2023-02-28T06:26:55;26.03;;;9.23;;
18316;SDS011;9284;52.298;21.164;2023-02-28T06:29:25;19.00;;;9.77;;
18316;SDS011;9284;52.298;21.164;2023-02-28T06:31:53;27.77;;;9.43;;
18316;SDS011;9284;52.298;21.164;2023-02-28T06:34:22;23.33;;;9.77;;
18316;SDS011;9284;52.298;21.164;2023-02-28T06:36:50;30.30;;;10.13;;
18316;SDS011;9284;52.298;21.164;2023-02-28T06:39:19;21.17;;;9.60;;
18316;SDS011;9284;52.298;21.164;2023-02-28T06:41:49;25.27;;;10.40;;
18316;SDS011;9284;52.298;21.164;2023-02-28T06:44:22;21.70;;;8.93;;
18316;SDS011;9284;52.298;21.164;2023-02-28T06:46:50;22.33;;;9.70;;
18316;SDS011;9284;52.298;21.164;2023-02-28T06:49:21;23.03;;;9.20;;
18316;SDS011;9284;52.298;21.164;2023-02-28T06:51:49;25.53;;;9.87;;
18316;SDS011;9284;52.298;21.164;2023-02-28T06:54:18;23.53;;;9.53;;
18316;SDS011;9284;52.298;21.164;2023-02-28T06:56:46;24.30;;;9.93;;
18316;SDS011;9284;52.298;21.164;2023-02-28T06:59:16;25.63;;;9.77;;
18316;SDS011;9284;52.298;21.164;2023-02-28T07:01:45;21.23;;;9.10;;
18316;SDS011;9284;52.298;21.164;2023-02-28T07:04:13;20.17;;;8.70;;
18316;SDS011;9284;52.298;21.164;2023-02-28T07:06:41;19.07;;;8.60;;
18316;SDS011;9284;52.298;21.164;2023-02-28T07:09:10;18.17;;;7.97;;
18316;SDS011;9284;52.298;21.164;2023-02-28T07:11:39;17.50;;;7.03;;
18316;SDS011;9284;52.298;21.164;2023-02-28T07:14:12;18.30;;;7.17;;
18316;SDS011;9284;52.298;21.164;2023-02-28T07:16:46;15.90;;;6.90;;
18316;SDS011;9284;52.298;21.164;2023-02-28T07:19:15;23.08;;;7.97;;
18316;SDS011;9284;52.298;21.164;2023-02-28T07:21:43;12.65;;;6.18;;
18316;SDS011;9284;52.298;21.164;2023-02-28T07:24:11;20.48;;;6.85;;
18316;SDS011;9284;52.298;21.164;2023-02-28T07:26:42;16.45;;;6.80;;
18316;SDS011;9284;52.298;21.164;2023-02-28T07:29:10;22.70;;;7.15;;
18316;SDS011;9284;52.298;21.164;2023-02-28T07:31:38;19.58;;;7.18;;
18316;SDS011;9284;52.298;21.164;2023-02-28T07:34:08;23.15;;;8.45;;
18316;SDS011;9284;52.298;21.164;2023-02-28T07:36:36;27.77;;;9.07;;
18316;SDS011;9284;52.298;21.164;2023-02-28T07:39:05;23.90;;;9.20;;
18316;SDS011;9284;52.298;21.164;2023-02-28T07:41:35;20.83;;;7.85;;
18316;SDS011;9284;52.298;21.164;2023-02-28T07:44:09;19.35;;;7.55;;
18316;SDS011;9284;52.298;21.164;2023-02-28T07:46:38;8.23;;;5.22;;
18316;SDS011;9284;52.298;21.164;2023-02-28T07:49:09;9.30;;;4.82;;
18316;SDS011;9284;52.298;21.164;2023-02-28T07:51:38;7.50;;;4.28;;
18316;SDS011;9284;52.298;21.164;2023-02-28T07:54:06;6.95;;;4.80;;
18316;SDS011;9284;52.298;21.164;2023-02-28T07:56:35;7.43;;;4.50;;
18316;SDS011;9284;52.298;21.164;2023-02-28T07:59:03;9.75;;;4.90;;
18316;SDS011;9284;52.298;21.164;2023-02-28T08:01:31;7.80;;;4.97;;
18316;SDS011;9284;52.298;21.164;2023-02-28T08:04:00;8.10;;;5.00;;
18316;SDS011;9284;52.298;21.164;2023-02-28T08:06:29;7.22;;;4.80;;
18316;SDS011;9284;52.298;21.164;2023-02-28T08:08:59;7.63;;;5.22;;
18316;SDS011;9284;52.298;21.164;2023-02-28T08:11:27;9.23;;;5.18;;
18316;SDS011;9284;52.298;21.164;2023-02-28T08:13:56;8.75;;;5.13;;
18316;SDS011;9284;52.298;21.164;2023-02-28T08:16:24;9.40;;;4.95;;
18316;SDS011;9284;52.298;21.164;2023-02-28T08:18:52;7.53;;;4.55;;
18316;SDS011;9284;52.298;21.164;2023-02-28T08:21:21;7.00;;;4.88;;
18316;SDS011;9284;52.298;21.164;2023-02-28T08:23:51;7.15;;;4.45;;
18316;SDS011;9284;52.298;21.164;2023-02-28T08:26:19;10.33;;;4.77;;
18316;SDS011;9284;52.298;21.164;2023-02-28T08:28:48;8.47;;;5.03;;
18316;SDS011;9284;52.298;21.164;2023-02-28T08:31:17;8.50;;;4.83;;
18316;SDS011;9284;52.298;21.164;2023-02-28T08:33:46;9.57;;;5.07;;
18316;SDS011;9284;52.298;21.164;2023-02-28T08:36:17;8.40;;;4.50;;
18316;SDS011;9284;52.298;21.164;2023-02-28T08:38:47;11.70;;;5.47;;
18316;SDS011;9284;52.298;21.164;2023-02-28T08:41:16;10.27;;;5.37;;
18316;SDS011;9284;52.298;21.164;2023-02-28T08:43:45;10.97;;;5.97;;
18316;SDS011;9284;52.298;21.164;2023-02-28T08:46:13;10.90;;;5.03;;
18316;SDS011;9284;52.298;21.164;2023-02-28T08:48:42;10.97;;;5.60;;
18316;SDS011;9284;52.298;21.164;2023-02-28T08:51:12;9.63;;;5.50;;
18316;SDS011;9284;52.298;21.164;2023-02-28T08:53:45;11.63;;;5.30;;
18316;SDS011;9284;52.298;21.164;2023-02-28T08:56:17;13.27;;;6.10;;
18316;SDS011;9284;52.298;21.164;2023-02-28T08:58:45;13.10;;;6.17;;
18316;SDS011;9284;52.298;21.164;2023-02-28T09:01:15;13.03;;;6.10;;
18316;SDS011;9284;52.298;21.164;2023-02-28T09:03:45;12.20;;;6.47;;
18316;SDS011;9284;52.298;21.164;2023-02-28T09:06:15;12.60;;;6.10;;
18316;SDS011;9284;52.298;21.164;2023-02-28T09:08:45;11.13;;;6.40;;
18316;SDS011;9284;52.298;21.164;2023-02-28T09:11:14;12.37;;;6.27;;
18316;SDS011;9284;52.298;21.164;2023-02-28T09:13:44;11.83;;;6.40;;
18316;SDS011;9284;52.298;21.164;2023-02-28T09:16:15;13.37;;;6.30;;
18316;SDS011;9284;52.298;21.164;2023-02-28T09:18:50;16.10;;;7.47;;
18316;SDS011;9284;52.298;21.164;2023-02-28T09:21:23;11.80;;;6.53;;
18316;SDS011;9284;52.298;21.164;2023-02-28T09:23:55;14.47;;;6.70;;
18316;SDS011;9284;52.298;21.164;2023-02-28T09:26:27;14.40;;;6.93;;
18316;SDS011;9284;52.298;21.164;2023-02-28T09:29:10;13.90;;;6.13;;
18316;SDS011;9284;52.298;21.164;2023-02-28T09:31:38;13.80;;;7.53;;
18316;SDS011;9284;52.298;21.164;2023-02-28T09:34:07;13.33;;;7.10;;
18316;SDS011;9284;52.298;21.164;2023-02-28T09:36:35;15.87;;;7.50;;
18316;SDS011;9284;52.298;21.164;2023-02-28T09:39:11;14.67;;;7.07;;
18316;SDS011;9284;52.298;21.164;2023-02-28T09:41:42;15.93;;;7.77;;
18316;SDS011;9284;52.298;21.164;2023-02-28T09:44:22;15.53;;;7.47;;
18316;SDS011;9284;52.298;21.164;2023-02-28T09:46:57;12.10;;;7.50;;
18316;SDS011;9284;52.298;21.164;2023-02-28T09:49:32;16.27;;;7.03;;
18316;SDS011;9284;52.298;21.164;2023-02-28T09:52:12;17.43;;;8.00;;
18316;SDS011;9284;52.298;21.164;2023-02-28T09:54:45;17.73;;;7.63;;
18316;SDS011;9284;52.298;21.164;2023-02-28T09:57:17;16.73;;;8.00;;
18316;SDS011;9284;52.298;21.164;2023-02-28T10:00:01;18.33;;;8.23;;
18316;SDS011;9284;52.298;21.164;2023-02-28T10:05:39;19.60;;;8.03;;
18316;SDS011;9284;52.298;21.164;2023-02-28T10:08:12;16.53;;;8.17;;
18316;SDS011;9284;52.298;21.164;2023-02-28T10:10:43;15.23;;;8.07;;
18316;SDS011;9284;52.298;21.164;2023-02-28T10:13:16;16.80;;;7.80;;
18316;SDS011;9284;52.298;21.164;2023-02-28T10:15:52;21.47;;;8.57;;
18316;SDS011;9284;52.298;21.164;2023-02-28T10:18:25;14.70;;;7.97;;
18316;SDS011;9284;52.298;21.164;2023-02-28T10:20:58;15.53;;;8.23;;
18316;SDS011;9284;52.298;21.164;2023-02-28T10:23:28;15.13;;;7.60;;
18316;SDS011;9284;52.298;21.164;2023-02-28T10:26:05;15.27;;;8.40;;
18316;SDS011;9284;52.298;21.164;2023-02-28T10:28:39;20.33;;;8.97;;
18316;SDS011;9284;52.298;21.164;2023-02-28T10:31:09;18.30;;;8.70;;
18316;SDS011;9284;52.298;21.164;2023-02-28T10:33:40;18.20;;;8.80;;
18316;SDS011;9284;52.298;21.164;2023-02-28T10:36:10;18.13;;;8.20;;
18316;SDS011;9284;52.298;21.164;2023-02-28T10:38:43;19.23;;;9.30;;
18316;SDS011;9284;52.298;21.164;2023-02-28T10:41:14;17.03;;;8.23;;
18316;SDS011;9284;52.298;21.164;2023-02-28T10:44:11;17.53;;;8.97;;
18316;SDS011;9284;52.298;21.164;2023-02-28T10:46:43;16.63;;;8.50;;
18316;SDS011;9284;52.298;21.164;2023-02-28T10:49:13;17.17;;;8.20;;
18316;SDS011;9284;52.298;21.164;2023-02-28T10:51:46;19.03;;;8.67;;
18316;SDS011;9284;52.298;21.164;2023-02-28T10:54:19;16.00;;;8.37;;
18316;SDS011;9284;52.298;21.164;2023-02-28T10:59:44;15.93;;;8.13;;
18316;SDS011;9284;52.298;21.164;2023-02-28T11:05:03;14.47;;;7.33;;
18316;SDS011;9284;52.298;21.164;2023-02-28T11:07:52;18.83;;;8.53;;
18316;SDS011;9284;52.298;21.164;2023-02-28T11:10:22;16.47;;;7.60;;
18316;SDS011;9284;52.298;21.164;2023-02-28T11:12:55;18.20;;;8.00;;
18316;SDS011;9284;52.298;21.164;2023-02-28T11:15:27;14.07;;;7.25;;
18316;SDS011;9284;52.298;21.164;2023-02-28T11:17:59;12.40;;;7.30;;
18316;SDS011;9284;52.298;21.164;2023-02-28T11:20:30;16.70;;;7.40;;
18316;SDS011;9284;52.298;21.164;2023-02-28T11:23:02;15.77;;;8.15;;
18316;SDS011;9284;52.298;21.164;2023-02-28T11:25:32;19.10;;;8.10;;
18316;SDS011;9284;52.298;21.164;2023-02-28T11:28:04;15.63;;;8.63;;
18316;SDS011;9284;52.298;21.164;2023-02-28T11:30:35;14.50;;;7.97;;
18316;SDS011;9284;52.298;21.164;2023-02-28T11:33:39;16.20;;;8.07;;
18316;SDS011;9284;52.298;21.164;2023-02-28T11:36:09;16.90;;;7.93;;
18316;SDS011;9284;52.298;21.164;2023-02-28T11:38:40;14.65;;;7.72;;
18316;SDS011;9284;52.298;21.164;2023-02-28T11:41:24;11.95;;;7.53;;
18316;SDS011;9284;52.298;21.164;2023-02-28T11:44:23;13.68;;;7.82;;
18316;SDS011;9284;52.298;21.164;2023-02-28T11:46:59;17.17;;;8.00;;
18316;SDS011;9284;52.298;21.164;2023-02-28T11:49:37;17.73;;;8.40;;
18316;SDS011;9284;52.298;21.164;2023-02-28T11:52:19;13.40;;;7.88;;
18316;SDS011;9284;52.298;21.164;2023-02-28T11:55:00;17.75;;;8.60;;
18316;SDS011;9284;52.298;21.164;2023-02-28T11:57:47;15.10;;;8.38;;
18316;SDS011;9284;52.298;21.164;2023-02-28T12:00:36;20.08;;;10.00;;
18316;SDS011;9284;52.298;21.164;2023-02-28T12:03:15;19.83;;;9.63;;
18316;SDS011;9284;52.298;21.164;2023-02-28T12:05:56;31.58;;;15.63;;
18316;SDS011;9284;52.298;21.164;2023-02-28T12:08:42;17.80;;;9.63;;
18316;SDS011;9284;52.298;21.164;2023-02-28T12:11:17;17.80;;;9.27;;
18316;SDS011;9284;52.298;21.164;2023-02-28T12:13:57;18.33;;;9.18;;
18316;SDS011;9284;52.298;21.164;2023-02-28T12:16:49;18.38;;;9.07;;
18316;SDS011;9284;52.298;21.164;2023-02-28T12:19:25;26.70;;;9.70;;
18316;SDS011;9284;52.298;21.164;2023-02-28T12:22:03;17.23;;;9.77;;
18316;SDS011;9284;52.298;21.164;2023-02-28T12:24:52;17.13;;;8.93;;
18316;SDS011;9284;52.298;21.164;2023-02-28T12:27:31;17.13;;;8.63;;
18316;SDS011;9284;52.298;21.164;2023-02-28T12:30:13;15.27;;;8.07;;
18316;SDS011;9284;52.298;21.164;2023-02-28T12:32:45;16.50;;;8.97;;
18316;SDS011;9284;52.298;21.164;2023-02-28T12:35:25;22.47;;;8.63;;
18316;SDS011;9284;52.298;21.164;2023-02-28T12:38:05;17.60;;;8.70;;
18316;SDS011;9284;52.298;21.164;2023-02-28T12:40:42;13.70;;;8.37;;
18316;SDS011;9284;52.298;21.164;2023-02-28T12:43:16;18.20;;;8.63;;
18316;SDS011;9284;52.298;21.164;2023-02-28T12:45:48;16.93;;;8.03;;
18316;SDS011;9284;52.298;21.164;2023-02-28T12:48:27;13.67;;;8.00;;
18316;SDS011;9284;52.298;21.164;2023-02-28T12:51:09;14.57;;;8.17;;
18316;SDS011;9284;52.298;21.164;2023-02-28T12:53:47;19.07;;;8.77;;
18316;SDS011;9284;52.298;21.164;2023-02-28T12:56:24;17.67;;;8.57;;
18316;SDS011;9284;52.298;21.164;2023-02-28T12:59:03;15.73;;;7.83;;
18316;SDS011;9284;52.298;21.164;2023-02-28T13:01:55;13.93;;;7.60;;
18316;SDS011;9284;52.298;21.164;2023-02-28T13:11:08;16.53;;;8.77;;
18316;SDS011;9284;52.298;21.164;2023-02-28T13:13:56;17.37;;;8.17;;
18316;SDS011;9284;52.298;21.164;2023-02-28T13:16:26;17.43;;;8.23;;
18316;SDS011;9284;52.298;21.164;2023-02-28T13:19:07;13.97;;;8.10;;
18316;SDS011;9284;52.298;21.164;2023-02-28T13:21:42;16.17;;;8.37;;
18316;SDS011;9284;52.298;21.164;2023-02-28T13:24:11;15.67;;;7.33;;
18316;SDS011;9284;52.298;21.164;2023-02-28T13:27:20;14.63;;;7.63;;
18316;SDS011;9284;52.298;21.164;2023-02-28T13:29:52;17.53;;;8.07;;
18316;SDS011;9284;52.298;21.164;2023-02-28T13:32:32;16.70;;;8.07;;
18316;SDS011;9284;52.298;21.164;2023-02-28T13:35:12;17.63;;;8.03;;
18316;SDS011;9284;52.298;21.164;2023-02-28T13:38:15;20.10;;;8.63;;
18316;SDS011;9284;52.298;21.164;2023-02-28T13:44:23;14.20;;;7.17;;
18316;SDS011;9284;52.298;21.164;2023-02-28T13:49:51;12.53;;;6.90;;
18316;SDS011;9284;52.298;21.164;2023-02-28T13:52:21;13.43;;;7.30;;
18316;SDS011;9284;52.298;21.164;2023-02-28T13:55:00;15.73;;;7.50;;
18316;SDS011;9284;52.298;21.164;2023-02-28T13:57:59;15.07;;;7.40;;
18316;SDS011;9284;52.298;21.164;2023-02-28T14:00:55;15.07;;;7.90;;
18316;SDS011;9284;52.298;21.164;2023-02-28T14:04:02;15.37;;;7.50;;
18316;SDS011;9284;52.298;21.164;2023-02-28T14:06:47;17.03;;;7.30;;
18316;SDS011;9284;52.298;21.164;2023-02-28T14:09:18;13.83;;;7.57;;
18316;SDS011;9284;52.298;21.164;2023-02-28T14:11:52;14.20;;;7.93;;
18316;SDS011;9284;52.298;21.164;2023-02-28T14:17:27;17.97;;;9.10;;
18316;SDS011;9284;52.298;21.164;2023-02-28T14:19:56;17.73;;;8.40;;
18316;SDS011;9284;52.298;21.164;2023-02-28T14:22:36;17.17;;;8.10;;
18316;SDS011;9284;52.298;21.164;2023-02-28T14:25:16;11.73;;;6.40;;
18316;SDS011;9284;52.298;21.164;2023-02-28T14:27:54;15.47;;;6.83;;
18316;SDS011;9284;52.298;21.164;2023-02-28T14:30:40;14.80;;;7.73;;
18316;SDS011;9284;52.298;21.164;2023-02-28T14:33:25;13.23;;;6.93;;
18316;SDS011;9284;52.298;21.164;2023-02-28T14:36:04;16.27;;;7.80;;
18316;SDS011;9284;52.298;21.164;2023-02-28T14:38:41;14.87;;;7.50;;
18316;SDS011;9284;52.298;21.164;2023-02-28T14:41:14;19.93;;;8.27;;
18316;SDS011;9284;52.298;21.164;2023-02-28T14:43:48;16.60;;;6.90;;
18316;SDS011;9284;52.298;21.164;2023-02-28T14:46:20;13.97;;;7.10;;
18316;SDS011;9284;52.298;21.164;2023-02-28T14:48:58;13.87;;;7.50;;
18316;SDS011;9284;52.298;21.164;2023-02-28T14:51:27;16.37;;;7.67;;
18316;SDS011;9284;52.298;21.164;2023-02-28T14:53:58;15.10;;;7.70;;
18316;SDS011;9284;52.298;21.164;2023-02-28T14:56:30;17.00;;;7.60;;
18316;SDS011;9284;52.298;21.164;2023-02-28T14:59:03;18.43;;;7.73;;
18316;SDS011;9284;52.298;21.164;2023-02-28T15:01:52;11.73;;;6.57;;
18316;SDS011;9284;52.298;21.164;2023-02-28T15:04:36;13.13;;;6.17;;
18316;SDS011;9284;52.298;21.164;2023-02-28T15:07:07;16.37;;;7.13;;
18316;SDS011;9284;52.298;21.164;2023-02-28T15:09:36;12.20;;;6.27;;
18316;SDS011;9284;52.298;21.164;2023-02-28T15:12:05;10.57;;;6.37;;
18316;SDS011;9284;52.298;21.164;2023-02-28T15:14:33;17.27;;;7.97;;
18316;SDS011;9284;52.298;21.164;2023-02-28T15:17:11;13.90;;;7.40;;
18316;SDS011;9284;52.298;21.164;2023-02-28T15:19:50;17.17;;;8.07;;
18316;SDS011;9284;52.298;21.164;2023-02-28T15:22:24;17.20;;;8.47;;
18316;SDS011;9284;52.298;21.164;2023-02-28T15:24:58;17.63;;;7.97;;
18316;SDS011;9284;52.298;21.164;2023-02-28T15:27:27;18.80;;;7.57;;
18316;SDS011;9284;52.298;21.164;2023-02-28T15:29:59;14.13;;;7.23;;
18316;SDS011;9284;52.298;21.164;2023-02-28T15:32:34;15.37;;;7.03;;
18316;SDS011;9284;52.298;21.164;2023-02-28T15:35:28;19.70;;;7.67;;
18316;SDS011;9284;52.298;21.164;2023-02-28T15:37:59;18.03;;;8.37;;
18316;SDS011;9284;52.298;21.164;2023-02-28T15:40:35;21.93;;;8.90;;
18316;SDS011;9284;52.298;21.164;2023-02-28T15:43:12;13.97;;;7.50;;
18316;SDS011;9284;52.298;21.164;2023-02-28T15:45:44;17.80;;;7.60;;
18316;SDS011;9284;52.298;21.164;2023-02-28T15:48:17;17.17;;;8.50;;
18316;SDS011;9284;52.298;21.164;2023-02-28T15:50:52;16.37;;;8.10;;
18316;SDS011;9284;52.298;21.164;2023-02-28T15:53:25;17.87;;;8.27;;
18316;SDS011;9284;52.298;21.164;2023-02-28T15:55:58;18.13;;;8.30;;
18316;SDS011;9284;52.298;21.164;2023-02-28T15:58:29;22.67;;;10.63;;
18316;SDS011;9284;52.298;21.164;2023-02-28T16:01:04;18.63;;;9.70;;
18316;SDS011;9284;52.298;21.164;2023-02-28T16:03:47;19.33;;;10.10;;
18316;SDS011;9284;52.298;21.164;2023-02-28T16:09:10;23.80;;;10.30;;
18316;SDS011;9284;52.298;21.164;2023-02-28T16:11:40;28.23;;;11.37;;
18316;SDS011;9284;52.298;21.164;2023-02-28T16:14:13;23.03;;;9.73;;
18316;SDS011;9284;52.298;21.164;2023-02-28T16:16:44;31.73;;;10.47;;
18316;SDS011;9284;52.298;21.164;2023-02-28T16:19:14;28.23;;;9.40;;
18316;SDS011;9284;52.298;21.164;2023-02-28T16:21:44;26.50;;;10.57;;
18316;SDS011;9284;52.298;21.164;2023-02-28T16:24:13;19.03;;;8.90;;
18316;SDS011;9284;52.298;21.164;2023-02-28T16:26:44;24.07;;;10.93;;
18316;SDS011;9284;52.298;21.164;2023-02-28T16:29:15;23.67;;;10.07;;
18316;SDS011;9284;52.298;21.164;2023-02-28T16:31:47;26.13;;;10.87;;
18316;SDS011;9284;52.298;21.164;2023-02-28T16:34:16;22.90;;;11.00;;
18316;SDS011;9284;52.298;21.164;2023-02-28T16:36:46;30.93;;;13.30;;
18316;SDS011;9284;52.298;21.164;2023-02-28T16:39:17;33.57;;;15.10;;
18316;SDS011;9284;52.298;21.164;2023-02-28T16:41:47;34.80;;;15.13;;
18316;SDS011;9284;52.298;21.164;2023-02-28T16:44:20;44.10;;;16.07;;
18316;SDS011;9284;52.298;21.164;2023-02-28T16:46:54;46.10;;;17.27;;
18316;SDS011;9284;52.298;21.164;2023-02-28T16:49:22;44.53;;;16.83;;
18316;SDS011;9284;52.298;21.164;2023-02-28T16:51:52;46.63;;;16.63;;
18316;SDS011;9284;52.298;21.164;2023-02-28T16:54:20;46.77;;;18.00;;
18316;SDS011;9284;52.298;21.164;2023-02-28T16:56:49;50.93;;;18.43;;
18316;SDS011;9284;52.298;21.164;2023-02-28T16:59:18;47.43;;;16.77;;
18316;SDS011;9284;52.298;21.164;2023-02-28T17:01:49;46.27;;;16.33;;
18316;SDS011;9284;52.298;21.164;2023-02-28T17:04:18;43.50;;;17.03;;
18316;SDS011;9284;52.298;21.164;2023-02-28T17:06:46;52.63;;;19.23;;
18316;SDS011;9284;52.298;21.164;2023-02-28T17:09:17;47.93;;;18.57;;
18316;SDS011;9284;52.298;21.164;2023-02-28T17:11:49;41.73;;;17.50;;
18316;SDS011;9284;52.298;21.164;2023-02-28T17:14:18;42.00;;;17.40;;
18316;SDS011;9284;52.298;21.164;2023-02-28T17:16:47;47.23;;;18.63;;
18316;SDS011;9284;52.298;21.164;2023-02-28T17:19:16;44.80;;;19.03;;
18316;SDS011;9284;52.298;21.164;2023-02-28T17:21:44;51.07;;;20.50;;
18316;SDS011;9284;52.298;21.164;2023-02-28T17:24:13;61.53;;;21.70;;
18316;SDS011;9284;52.298;21.164;2023-02-28T17:26:52;73.57;;;24.53;;
18316;SDS011;9284;52.298;21.164;2023-02-28T17:29:22;64.47;;;25.33;;
18316;SDS011;9284;52.298;21.164;2023-02-28T17:31:51;54.47;;;20.30;;
18316;SDS011;9284;52.298;21.164;2023-02-28T17:34:20;52.73;;;21.07;;
18316;SDS011;9284;52.298;21.164;2023-02-28T17:36:49;47.63;;;20.27;;
18316;SDS011;9284;52.298;21.164;2023-02-28T17:39:19;51.00;;;21.10;;
18316;SDS011;9284;52.298;21.164;2023-02-28T17:41:52;56.30;;;22.37;;
18316;SDS011;9284;52.298;21.164;2023-02-28T17:44:22;61.73;;;24.90;;
18316;SDS011;9284;52.298;21.164;2023-02-28T17:46:51;55.97;;;23.50;;
18316;SDS011;9284;52.298;21.164;2023-02-28T17:49:22;59.50;;;25.97;;
18316;SDS011;9284;52.298;21.164;2023-02-28T17:51:50;60.03;;;28.07;;
18316;SDS011;9284;52.298;21.164;2023-02-28T17:54:19;71.00;;;28.57;;
18316;SDS011;9284;52.298;21.164;2023-02-28T17:56:47;57.67;;;26.17;;
18316;SDS011;9284;52.298;21.164;2023-02-28T17:59:17;57.73;;;24.70;;
18316;SDS011;9284;52.298;21.164;2023-02-28T18:01:45;56.03;;;23.17;;
18316;SDS011;9284;52.298;21.164;2023-02-28T18:04:14;51.33;;;23.03;;
18316;SDS011;9284;52.298;21.164;2023-02-28T18:06:43;56.77;;;23.80;;
18316;SDS011;9284;52.298;21.164;2023-02-28T18:09:15;64.50;;;23.60;;
18316;SDS011;9284;52.298;21.164;2023-02-28T18:11:47;56.50;;;22.60;;
18316;SDS011;9284;52.298;21.164;2023-02-28T18:14:19;57.27;;;22.37;;
18316;SDS011;9284;52.298;21.164;2023-02-28T18:16:50;58.93;;;24.63;;
18316;SDS011;9284;52.298;21.164;2023-02-28T18:19:19;62.10;;;24.17;;
18316;SDS011;9284;52.298;21.164;2023-02-28T18:21:48;68.50;;;25.57;;
18316;SDS011;9284;52.298;21.164;2023-02-28T18:24:18;64.43;;;24.50;;
18316;SDS011;9284;52.298;21.164;2023-02-28T18:26:48;67.73;;;25.97;;
18316;SDS011;9284;52.298;21.164;2023-02-28T18:29:19;62.43;;;24.40;;
18316;SDS011;9284;52.298;21.164;2023-02-28T18:31:49;61.40;;;24.67;;
18316;SDS011;9284;52.298;21.164;2023-02-28T18:34:18;68.60;;;25.90;;
18316;SDS011;9284;52.298;21.164;2023-02-28T18:36:47;82.67;;;32.97;;
18316;SDS011;9284;52.298;21.164;2023-02-28T18:39:16;79.33;;;32.63;;
18316;SDS011;9284;52.298;21.164;2023-02-28T18:41:45;73.33;;;28.83;;
18316;SDS011;9284;52.298;21.164;2023-02-28T18:44:13;87.37;;;30.10;;
18316;SDS011;9284;52.298;21.164;2023-02-28T18:46:48;77.20;;;29.30;;
18316;SDS011;9284;52.298;21.164;2023-02-28T18:49:19;66.70;;;27.67;;
18316;SDS011;9284;52.298;21.164;2023-02-28T18:51:48;90.13;;;31.93;;
18316;SDS011;9284;52.298;21.164;2023-02-28T18:54:18;116.20;;;45.17;;
18316;SDS011;9284;52.298;21.164;2023-02-28T18:56:46;122.23;;;44.30;;
18316;SDS011;9284;52.298;21.164;2023-02-28T18:59:16;128.07;;;46.33;;
18316;SDS011;9284;52.298;21.164;2023-02-28T19:01:44;120.57;;;42.77;;
18316;SDS011;9284;52.298;21.164;2023-02-28T19:04:14;95.10;;;38.43;;
18316;SDS011;9284;52.298;21.164;2023-02-28T19:06:42;107.30;;;42.07;;
18316;SDS011;9284;52.298;21.164;2023-02-28T19:09:11;108.07;;;40.87;;
18316;SDS011;9284;52.298;21.164;2023-02-28T19:11:39;109.90;;;39.57;;
18316;SDS011;9284;52.298;21.164;2023-02-28T19:14:08;98.67;;;37.97;;
18316;SDS011;9284;52.298;21.164;2023-02-28T19:16:36;100.63;;;37.27;;
18316;SDS011;9284;52.298;21.164;2023-02-28T19:19:04;100.67;;;38.97;;
18316;SDS011;9284;52.298;21.164;2023-02-28T19:21:34;90.27;;;35.53;;
18316;SDS011;9284;52.298;21.164;2023-02-28T19:24:03;95.57;;;33.93;;
18316;SDS011;9284;52.298;21.164;2023-02-28T19:26:31;89.87;;;33.77;;
18316;SDS011;9284;52.298;21.164;2023-02-28T19:29:01;87.80;;;34.80;;
18316;SDS011;9284;52.298;21.164;2023-02-28T19:31:30;88.83;;;33.63;;
18316;SDS011;9284;52.298;21.164;2023-02-28T19:33:59;84.70;;;34.07;;
18316;SDS011;9284;52.298;21.164;2023-02-28T19:36:27;85.43;;;35.20;;
18316;SDS011;9284;52.298;21.164;2023-02-28T19:38:57;105.50;;;37.20;;
18316;SDS011;9284;52.298;21.164;2023-02-28T19:41:26;79.97;;;33.67;;